sensor_id;sensor_type;location;lat;lon;timestamp;P1;durP1;ratioP1;P2;durP2;ratioP2
55539;SDS011;41384;51.418;7.286;2022-10-31T00:01:56;9.77;;;4.53;;
55539;SDS011;41384;51.418;7.286;2022-10-31T00:04:21;10.00;;;5.47;;
55539;SDS011;41384;51.418;7.286;2022-10-31T00:06:46;13.60;;;4.90;;
55539;SDS011;41384;51.418;7.286;2022-10-31T00:09:12;9.23;;;4.57;;
55539;SDS011;41384;51.418;7.286;2022-10-31T00:11:37;11.30;;;4.97;;
55539;SDS011;41384;51.418;7.286;2022-10-31T00:14:02;8.95;;;5.13;;
55539;SDS011;41384;51.418;7.286;2022-10-31T00:16:28;13.60;;;5.38;;
55539;SDS011;41384;51.418;7.286;2022-10-31T00:18:55;11.80;;;4.72;;
55539;SDS011;41384;51.418;7.286;2022-10-31T00:21:22;12.43;;;5.13;;
55539;SDS011;41384;51.418;7.286;2022-10-31T00:23:48;13.90;;;5.53;;
55539;SDS011;41384;51.418;7.286;2022-10-31T00:26:13;13.45;;;5.28;;
55539;SDS011;41384;51.418;7.286;2022-10-31T00:28:39;13.10;;;5.07;;
55539;SDS011;41384;51.418;7.286;2022-10-31T00:31:05;9.45;;;5.00;;
55539;SDS011;41384;51.418;7.286;2022-10-31T00:33:36;10.65;;;4.90;;
55539;SDS011;41384;51.418;7.286;2022-10-31T00:36:03;12.07;;;4.53;;
55539;SDS011;41384;51.418;7.286;2022-10-31T00:38:29;14.52;;;5.25;;
55539;SDS011;41384;51.418;7.286;2022-10-31T00:40:55;7.90;;;4.68;;
55539;SDS011;41384;51.418;7.286;2022-10-31T00:43:20;10.98;;;4.53;;
55539;SDS011;41384;51.418;7.286;2022-10-31T00:45:46;11.55;;;4.95;;
55539;SDS011;41384;51.418;7.286;2022-10-31T00:48:11;10.80;;;5.10;;
55539;SDS011;41384;51.418;7.286;2022-10-31T00:50:36;10.38;;;4.93;;
55539;SDS011;41384;51.418;7.286;2022-10-31T00:53:02;10.30;;;5.43;;
55539;SDS011;41384;51.418;7.286;2022-10-31T00:55:27;8.63;;;4.43;;
55539;SDS011;41384;51.418;7.286;2022-10-31T00:57:53;15.60;;;5.57;;
55539;SDS011;41384;51.418;7.286;2022-10-31T01:00:18;13.15;;;5.32;;
55539;SDS011;41384;51.418;7.286;2022-10-31T01:02:43;12.20;;;5.40;;
55539;SDS011;41384;51.418;7.286;2022-10-31T01:05:09;12.15;;;5.28;;
55539;SDS011;41384;51.418;7.286;2022-10-31T01:07:37;13.85;;;5.47;;
55539;SDS011;41384;51.418;7.286;2022-10-31T01:10:04;13.10;;;6.07;;
55539;SDS011;41384;51.418;7.286;2022-10-31T01:12:35;12.30;;;5.45;;
55539;SDS011;41384;51.418;7.286;2022-10-31T01:15:01;12.35;;;5.15;;
55539;SDS011;41384;51.418;7.286;2022-10-31T01:17:27;11.15;;;4.93;;
55539;SDS011;41384;51.418;7.286;2022-10-31T01:19:52;13.70;;;5.65;;
55539;SDS011;41384;51.418;7.286;2022-10-31T01:22:17;12.02;;;5.05;;
55539;SDS011;41384;51.418;7.286;2022-10-31T01:24:43;12.10;;;5.80;;
55539;SDS011;41384;51.418;7.286;2022-10-31T01:27:08;11.50;;;5.60;;
55539;SDS011;41384;51.418;7.286;2022-10-31T01:29:33;8.82;;;4.95;;
55539;SDS011;41384;51.418;7.286;2022-10-31T01:31:59;14.20;;;5.03;;
55539;SDS011;41384;51.418;7.286;2022-10-31T01:34:24;10.73;;;4.75;;
55539;SDS011;41384;51.418;7.286;2022-10-31T01:36:49;13.73;;;5.10;;
55539;SDS011;41384;51.418;7.286;2022-10-31T01:39:16;13.32;;;4.60;;
55539;SDS011;41384;51.418;7.286;2022-10-31T01:41:45;9.23;;;4.10;;
55539;SDS011;41384;51.418;7.286;2022-10-31T01:46:42;13.00;;;4.97;;
55539;SDS011;41384;51.418;7.286;2022-10-31T01:49:12;10.65;;;4.75;;
55539;SDS011;41384;51.418;7.286;2022-10-31T01:51:43;11.32;;;4.72;;
55539;SDS011;41384;51.418;7.286;2022-10-31T01:54:13;11.00;;;4.95;;
55539;SDS011;41384;51.418;7.286;2022-10-31T01:56:42;15.98;;;5.57;;
55539;SDS011;41384;51.418;7.286;2022-10-31T01:59:12;10.45;;;5.40;;
55539;SDS011;41384;51.418;7.286;2022-10-31T02:01:43;11.50;;;5.47;;
55539;SDS011;41384;51.418;7.286;2022-10-31T02:04:09;13.10;;;5.47;;
55539;SDS011;41384;51.418;7.286;2022-10-31T02:06:38;14.20;;;6.05;;
55539;SDS011;41384;51.418;7.286;2022-10-31T02:09:09;11.35;;;6.00;;
55539;SDS011;41384;51.418;7.286;2022-10-31T02:11:37;11.75;;;6.35;;
55539;SDS011;41384;51.418;7.286;2022-10-31T02:14:03;14.82;;;6.38;;
55539;SDS011;41384;51.418;7.286;2022-10-31T02:16:28;14.35;;;6.15;;
55539;SDS011;41384;51.418;7.286;2022-10-31T02:18:54;15.25;;;5.55;;
55539;SDS011;41384;51.418;7.286;2022-10-31T02:21:24;14.23;;;5.88;;
55539;SDS011;41384;51.418;7.286;2022-10-31T02:24:09;9.50;;;5.55;;
55539;SDS011;41384;51.418;7.286;2022-10-31T02:32:51;12.77;;;5.78;;
55539;SDS011;41384;51.418;7.286;2022-10-31T02:35:30;11.35;;;5.90;;
55539;SDS011;41384;51.418;7.286;2022-10-31T02:41:15;15.10;;;6.43;;
55539;SDS011;41384;51.418;7.286;2022-10-31T02:44:15;14.48;;;6.57;;
55539;SDS011;41384;51.418;7.286;2022-10-31T02:46:52;12.75;;;6.07;;
55539;SDS011;41384;51.418;7.286;2022-10-31T02:49:24;14.75;;;7.07;;
55539;SDS011;41384;51.418;7.286;2022-10-31T02:51:54;17.07;;;7.20;;
55539;SDS011;41384;51.418;7.286;2022-10-31T02:54:23;11.65;;;6.53;;
55539;SDS011;41384;51.418;7.286;2022-10-31T02:56:50;14.85;;;6.97;;
55539;SDS011;41384;51.418;7.286;2022-10-31T02:59:22;16.48;;;7.53;;
55539;SDS011;41384;51.418;7.286;2022-10-31T03:13:09;15.57;;;7.63;;
55539;SDS011;41384;51.418;7.286;2022-10-31T03:15:43;16.27;;;7.32;;
55539;SDS011;41384;51.418;7.286;2022-10-31T03:20:41;14.20;;;6.97;;
55539;SDS011;41384;51.418;7.286;2022-10-31T03:23:14;13.98;;;6.95;;
55539;SDS011;41384;51.418;7.286;2022-10-31T03:25:42;18.20;;;7.18;;
55539;SDS011;41384;51.418;7.286;2022-10-31T03:28:09;15.23;;;7.38;;
55539;SDS011;41384;51.418;7.286;2022-10-31T03:30:38;16.80;;;6.68;;
55539;SDS011;41384;51.418;7.286;2022-10-31T03:33:08;15.80;;;7.25;;
55539;SDS011;41384;51.418;7.286;2022-10-31T03:35:38;14.48;;;6.45;;
55539;SDS011;41384;51.418;7.286;2022-10-31T03:38:07;15.50;;;7.22;;
55539;SDS011;41384;51.418;7.286;2022-10-31T03:40:34;13.50;;;6.90;;
55539;SDS011;41384;51.418;7.286;2022-10-31T03:43:05;14.15;;;6.95;;
55539;SDS011;41384;51.418;7.286;2022-10-31T03:45:35;13.02;;;6.97;;
55539;SDS011;41384;51.418;7.286;2022-10-31T03:48:06;16.15;;;7.15;;
55539;SDS011;41384;51.418;7.286;2022-10-31T03:50:55;14.68;;;7.20;;
55539;SDS011;41384;51.418;7.286;2022-10-31T03:56:23;12.25;;;6.68;;
55539;SDS011;41384;51.418;7.286;2022-10-31T03:59:15;17.27;;;7.30;;
55539;SDS011;41384;51.418;7.286;2022-10-31T04:01:47;16.73;;;6.80;;
55539;SDS011;41384;51.418;7.286;2022-10-31T04:04:16;14.73;;;7.10;;
55539;SDS011;41384;51.418;7.286;2022-10-31T04:06:43;13.23;;;6.45;;
55539;SDS011;41384;51.418;7.286;2022-10-31T04:09:11;17.90;;;7.97;;
55539;SDS011;41384;51.418;7.286;2022-10-31T04:11:40;19.05;;;6.95;;
55539;SDS011;41384;51.418;7.286;2022-10-31T04:14:09;14.30;;;6.93;;
55539;SDS011;41384;51.418;7.286;2022-10-31T04:16:36;15.50;;;8.00;;
55539;SDS011;41384;51.418;7.286;2022-10-31T04:19:04;17.98;;;7.57;;
55539;SDS011;41384;51.418;7.286;2022-10-31T04:21:29;21.02;;;7.82;;
55539;SDS011;41384;51.418;7.286;2022-10-31T04:23:55;16.35;;;7.43;;
55539;SDS011;41384;51.418;7.286;2022-10-31T04:26:21;14.20;;;7.85;;
55539;SDS011;41384;51.418;7.286;2022-10-31T04:28:46;12.43;;;7.22;;
55539;SDS011;41384;51.418;7.286;2022-10-31T04:31:12;14.90;;;7.80;;
55539;SDS011;41384;51.418;7.286;2022-10-31T04:33:38;14.10;;;7.10;;
55539;SDS011;41384;51.418;7.286;2022-10-31T04:36:03;14.57;;;6.78;;
55539;SDS011;41384;51.418;7.286;2022-10-31T04:38:29;16.20;;;7.07;;
55539;SDS011;41384;51.418;7.286;2022-10-31T04:40:55;15.20;;;6.60;;
55539;SDS011;41384;51.418;7.286;2022-10-31T04:43:20;13.27;;;7.15;;
55539;SDS011;41384;51.418;7.286;2022-10-31T04:45:45;14.60;;;6.90;;
55539;SDS011;41384;51.418;7.286;2022-10-31T04:48:10;16.25;;;7.25;;
55539;SDS011;41384;51.418;7.286;2022-10-31T04:50:36;19.13;;;8.40;;
55539;SDS011;41384;51.418;7.286;2022-10-31T04:53:01;14.73;;;7.88;;
55539;SDS011;41384;51.418;7.286;2022-10-31T04:55:27;12.70;;;6.97;;
55539;SDS011;41384;51.418;7.286;2022-10-31T04:57:52;21.55;;;8.55;;
55539;SDS011;41384;51.418;7.286;2022-10-31T05:00:18;18.73;;;8.10;;
55539;SDS011;41384;51.418;7.286;2022-10-31T05:02:45;17.55;;;7.78;;
55539;SDS011;41384;51.418;7.286;2022-10-31T05:05:12;15.75;;;7.15;;
55539;SDS011;41384;51.418;7.286;2022-10-31T05:07:39;16.02;;;6.90;;
55539;SDS011;41384;51.418;7.286;2022-10-31T05:10:06;16.30;;;7.72;;
55539;SDS011;41384;51.418;7.286;2022-10-31T05:12:34;14.13;;;7.32;;
55539;SDS011;41384;51.418;7.286;2022-10-31T05:15:00;15.07;;;7.38;;
55539;SDS011;41384;51.418;7.286;2022-10-31T05:17:25;21.63;;;8.48;;
55539;SDS011;41384;51.418;7.286;2022-10-31T05:19:50;14.23;;;7.15;;
55539;SDS011;41384;51.418;7.286;2022-10-31T05:22:15;15.55;;;7.97;;
55539;SDS011;41384;51.418;7.286;2022-10-31T05:24:41;16.38;;;7.85;;
55539;SDS011;41384;51.418;7.286;2022-10-31T05:27:06;19.70;;;8.40;;
55539;SDS011;41384;51.418;7.286;2022-10-31T05:29:31;17.92;;;7.45;;
55539;SDS011;41384;51.418;7.286;2022-10-31T05:31:58;15.55;;;7.35;;
55539;SDS011;41384;51.418;7.286;2022-10-31T05:34:24;17.38;;;7.53;;
55539;SDS011;41384;51.418;7.286;2022-10-31T05:36:58;18.40;;;7.70;;
55539;SDS011;41384;51.418;7.286;2022-10-31T05:39:23;16.45;;;7.35;;
55539;SDS011;41384;51.418;7.286;2022-10-31T05:41:49;18.13;;;7.57;;
55539;SDS011;41384;51.418;7.286;2022-10-31T05:44:14;14.60;;;6.88;;
55539;SDS011;41384;51.418;7.286;2022-10-31T05:46:39;17.80;;;7.15;;
55539;SDS011;41384;51.418;7.286;2022-10-31T05:49:04;14.18;;;7.63;;
55539;SDS011;41384;51.418;7.286;2022-10-31T05:51:30;19.17;;;7.93;;
55539;SDS011;41384;51.418;7.286;2022-10-31T05:53:55;17.58;;;8.38;;
55539;SDS011;41384;51.418;7.286;2022-10-31T05:56:20;17.45;;;7.65;;
55539;SDS011;41384;51.418;7.286;2022-10-31T05:58:45;16.55;;;8.00;;
55539;SDS011;41384;51.418;7.286;2022-10-31T06:01:11;19.88;;;8.23;;
55539;SDS011;41384;51.418;7.286;2022-10-31T06:03:36;20.90;;;8.23;;
55539;SDS011;41384;51.418;7.286;2022-10-31T06:06:01;17.02;;;8.68;;
55539;SDS011;41384;51.418;7.286;2022-10-31T06:08:26;16.80;;;7.53;;
55539;SDS011;41384;51.418;7.286;2022-10-31T06:10:52;19.85;;;8.57;;
55539;SDS011;41384;51.418;7.286;2022-10-31T06:13:18;18.20;;;8.32;;
55539;SDS011;41384;51.418;7.286;2022-10-31T06:15:44;18.77;;;7.72;;
55539;SDS011;41384;51.418;7.286;2022-10-31T06:18:09;20.60;;;9.05;;
55539;SDS011;41384;51.418;7.286;2022-10-31T06:20:34;19.23;;;7.85;;
55539;SDS011;41384;51.418;7.286;2022-10-31T06:23:00;17.48;;;8.80;;
55539;SDS011;41384;51.418;7.286;2022-10-31T06:25:25;14.95;;;8.45;;
55539;SDS011;41384;51.418;7.286;2022-10-31T06:27:51;20.77;;;7.85;;
55539;SDS011;41384;51.418;7.286;2022-10-31T06:30:16;17.08;;;8.25;;
55539;SDS011;41384;51.418;7.286;2022-10-31T06:32:41;15.80;;;7.18;;
55539;SDS011;41384;51.418;7.286;2022-10-31T06:35:07;16.80;;;7.88;;
55539;SDS011;41384;51.418;7.286;2022-10-31T06:37:32;18.02;;;7.93;;
55539;SDS011;41384;51.418;7.286;2022-10-31T06:39:57;16.90;;;7.93;;
55539;SDS011;41384;51.418;7.286;2022-10-31T06:42:22;18.13;;;7.57;;
55539;SDS011;41384;51.418;7.286;2022-10-31T06:44:48;19.40;;;7.78;;
55539;SDS011;41384;51.418;7.286;2022-10-31T06:47:13;19.13;;;7.97;;
55539;SDS011;41384;51.418;7.286;2022-10-31T06:49:38;19.10;;;9.00;;
55539;SDS011;41384;51.418;7.286;2022-10-31T06:52:04;21.50;;;9.40;;
55539;SDS011;41384;51.418;7.286;2022-10-31T06:54:30;15.05;;;7.75;;
55539;SDS011;41384;51.418;7.286;2022-10-31T06:56:55;19.00;;;8.55;;
55539;SDS011;41384;51.418;7.286;2022-10-31T06:59:20;14.60;;;7.65;;
55539;SDS011;41384;51.418;7.286;2022-10-31T07:01:46;19.50;;;7.78;;
55539;SDS011;41384;51.418;7.286;2022-10-31T07:04:11;13.88;;;6.88;;
55539;SDS011;41384;51.418;7.286;2022-10-31T07:06:37;17.42;;;7.63;;
55539;SDS011;41384;51.418;7.286;2022-10-31T07:09:02;15.95;;;7.22;;
55539;SDS011;41384;51.418;7.286;2022-10-31T07:11:28;17.88;;;8.00;;
55539;SDS011;41384;51.418;7.286;2022-10-31T07:13:53;18.98;;;6.93;;
55539;SDS011;41384;51.418;7.286;2022-10-31T07:16:18;13.30;;;6.88;;
55539;SDS011;41384;51.418;7.286;2022-10-31T07:18:43;17.55;;;7.70;;
55539;SDS011;41384;51.418;7.286;2022-10-31T07:21:09;13.88;;;7.10;;
55539;SDS011;41384;51.418;7.286;2022-10-31T07:23:34;17.02;;;6.97;;
55539;SDS011;41384;51.418;7.286;2022-10-31T07:25:59;15.40;;;6.93;;
55539;SDS011;41384;51.418;7.286;2022-10-31T07:28:25;15.18;;;6.65;;
55539;SDS011;41384;51.418;7.286;2022-10-31T07:30:52;23.40;;;7.32;;
55539;SDS011;41384;51.418;7.286;2022-10-31T07:33:18;13.55;;;6.57;;
55539;SDS011;41384;51.418;7.286;2022-10-31T07:35:44;12.70;;;6.97;;
55539;SDS011;41384;51.418;7.286;2022-10-31T07:38:09;14.27;;;6.38;;
55539;SDS011;41384;51.418;7.286;2022-10-31T07:40:36;18.15;;;7.57;;
55539;SDS011;41384;51.418;7.286;2022-10-31T07:43:02;14.70;;;7.18;;
55539;SDS011;41384;51.418;7.286;2022-10-31T07:45:27;13.48;;;6.85;;
55539;SDS011;41384;51.418;7.286;2022-10-31T07:47:52;9.48;;;5.97;;
55539;SDS011;41384;51.418;7.286;2022-10-31T07:50:19;14.88;;;6.75;;
55539;SDS011;41384;51.418;7.286;2022-10-31T07:52:46;19.52;;;6.82;;
55539;SDS011;41384;51.418;7.286;2022-10-31T07:55:12;11.52;;;6.00;;
55539;SDS011;41384;51.418;7.286;2022-10-31T07:57:37;16.42;;;6.82;;
55539;SDS011;41384;51.418;7.286;2022-10-31T08:00:04;17.45;;;7.40;;
55539;SDS011;41384;51.418;7.286;2022-10-31T08:02:30;13.50;;;6.28;;
55539;SDS011;41384;51.418;7.286;2022-10-31T08:04:56;11.38;;;6.55;;
55539;SDS011;41384;51.418;7.286;2022-10-31T08:07:21;15.00;;;6.63;;
55539;SDS011;41384;51.418;7.286;2022-10-31T08:09:46;15.07;;;6.85;;
55539;SDS011;41384;51.418;7.286;2022-10-31T08:12:12;15.15;;;7.25;;
55539;SDS011;41384;51.418;7.286;2022-10-31T08:14:37;17.55;;;7.05;;
55539;SDS011;41384;51.418;7.286;2022-10-31T08:17:02;14.75;;;6.35;;
55539;SDS011;41384;51.418;7.286;2022-10-31T08:19:27;13.25;;;6.32;;
55539;SDS011;41384;51.418;7.286;2022-10-31T08:21:53;18.17;;;7.47;;
55539;SDS011;41384;51.418;7.286;2022-10-31T08:24:20;16.27;;;7.10;;
55539;SDS011;41384;51.418;7.286;2022-10-31T08:26:45;15.30;;;7.00;;
55539;SDS011;41384;51.418;7.286;2022-10-31T08:29:11;19.02;;;7.68;;
55539;SDS011;41384;51.418;7.286;2022-10-31T08:31:36;11.27;;;6.93;;
55539;SDS011;41384;51.418;7.286;2022-10-31T08:34:01;16.08;;;6.90;;
55539;SDS011;41384;51.418;7.286;2022-10-31T08:36:27;12.85;;;7.50;;
55539;SDS011;41384;51.418;7.286;2022-10-31T08:38:54;20.52;;;7.18;;
55539;SDS011;41384;51.418;7.286;2022-10-31T08:41:20;16.13;;;6.97;;
55539;SDS011;41384;51.418;7.286;2022-10-31T08:43:46;15.00;;;6.82;;
55539;SDS011;41384;51.418;7.286;2022-10-31T08:46:11;16.95;;;7.18;;
55539;SDS011;41384;51.418;7.286;2022-10-31T08:48:36;16.77;;;7.03;;
55539;SDS011;41384;51.418;7.286;2022-10-31T08:51:02;18.05;;;7.35;;
55539;SDS011;41384;51.418;7.286;2022-10-31T08:53:27;16.38;;;7.55;;
55539;SDS011;41384;51.418;7.286;2022-10-31T08:55:54;19.75;;;7.43;;
55539;SDS011;41384;51.418;7.286;2022-10-31T08:58:20;16.13;;;7.13;;
55539;SDS011;41384;51.418;7.286;2022-10-31T09:00:47;21.77;;;7.53;;
55539;SDS011;41384;51.418;7.286;2022-10-31T09:03:17;19.67;;;9.40;;
55539;SDS011;41384;51.418;7.286;2022-10-31T09:05:45;20.15;;;8.23;;
55539;SDS011;41384;51.418;7.286;2022-10-31T09:08:11;15.80;;;7.57;;
55539;SDS011;41384;51.418;7.286;2022-10-31T09:10:36;13.00;;;6.90;;
55539;SDS011;41384;51.418;7.286;2022-10-31T09:13:04;15.20;;;7.60;;
55539;SDS011;41384;51.418;7.286;2022-10-31T09:15:37;15.55;;;7.50;;
55539;SDS011;41384;51.418;7.286;2022-10-31T09:18:04;17.13;;;6.68;;
55539;SDS011;41384;51.418;7.286;2022-10-31T09:20:31;14.48;;;7.93;;
55539;SDS011;41384;51.418;7.286;2022-10-31T09:22:58;14.52;;;6.50;;
55539;SDS011;41384;51.418;7.286;2022-10-31T09:25:25;16.23;;;6.50;;
55539;SDS011;41384;51.418;7.286;2022-10-31T09:27:54;14.23;;;7.40;;
55539;SDS011;41384;51.418;7.286;2022-10-31T09:30:21;16.88;;;7.88;;
55539;SDS011;41384;51.418;7.286;2022-10-31T09:32:46;17.02;;;6.80;;
55539;SDS011;41384;51.418;7.286;2022-10-31T09:35:12;11.70;;;6.20;;
55539;SDS011;41384;51.418;7.286;2022-10-31T09:37:37;18.08;;;7.30;;
55539;SDS011;41384;51.418;7.286;2022-10-31T09:40:02;13.70;;;6.05;;
55539;SDS011;41384;51.418;7.286;2022-10-31T09:48:23;12.25;;;5.93;;
55539;SDS011;41384;51.418;7.286;2022-10-31T09:53:51;15.77;;;6.70;;
55539;SDS011;41384;51.418;7.286;2022-10-31T09:56:22;15.50;;;6.35;;
55539;SDS011;41384;51.418;7.286;2022-10-31T09:58:54;14.55;;;6.15;;
55539;SDS011;41384;51.418;7.286;2022-10-31T10:04:15;13.68;;;6.43;;
55539;SDS011;41384;51.418;7.286;2022-10-31T10:06:50;12.38;;;6.53;;
55539;SDS011;41384;51.418;7.286;2022-10-31T10:09:17;12.60;;;6.65;;
55539;SDS011;41384;51.418;7.286;2022-10-31T10:12:03;16.38;;;6.78;;
55539;SDS011;41384;51.418;7.286;2022-10-31T10:15:16;18.15;;;7.00;;
55539;SDS011;41384;51.418;7.286;2022-10-31T10:18:03;14.85;;;7.38;;
55539;SDS011;41384;51.418;7.286;2022-10-31T10:20:44;18.10;;;6.95;;
55539;SDS011;41384;51.418;7.286;2022-10-31T10:23:52;12.35;;;6.63;;
55539;SDS011;41384;51.418;7.286;2022-10-31T10:27:00;14.55;;;6.53;;
55539;SDS011;41384;51.418;7.286;2022-10-31T10:29:37;15.02;;;6.28;;
55539;SDS011;41384;51.418;7.286;2022-10-31T10:32:13;14.15;;;6.00;;
55539;SDS011;41384;51.418;7.286;2022-10-31T10:34:47;11.27;;;6.00;;
55539;SDS011;41384;51.418;7.286;2022-10-31T10:40:00;17.23;;;6.13;;
55539;SDS011;41384;51.418;7.286;2022-10-31T10:42:32;13.18;;;6.60;;
55539;SDS011;41384;51.418;7.286;2022-10-31T10:45:18;13.10;;;5.97;;
55539;SDS011;41384;51.418;7.286;2022-10-31T10:48:10;11.45;;;6.20;;
55539;SDS011;41384;51.418;7.286;2022-10-31T10:50:47;12.73;;;7.03;;
55539;SDS011;41384;51.418;7.286;2022-10-31T10:59:37;16.70;;;7.70;;
55539;SDS011;41384;51.418;7.286;2022-10-31T11:02:03;13.57;;;7.05;;
55539;SDS011;41384;51.418;7.286;2022-10-31T11:04:39;16.55;;;6.82;;
55539;SDS011;41384;51.418;7.286;2022-10-31T11:07:06;15.13;;;6.80;;
55539;SDS011;41384;51.418;7.286;2022-10-31T11:09:33;14.85;;;7.22;;
55539;SDS011;41384;51.418;7.286;2022-10-31T11:11:59;14.60;;;6.30;;
55539;SDS011;41384;51.418;7.286;2022-10-31T11:14:31;20.83;;;6.90;;
55539;SDS011;41384;51.418;7.286;2022-10-31T11:17:20;17.13;;;7.32;;
55539;SDS011;41384;51.418;7.286;2022-10-31T11:20:05;15.48;;;6.78;;
55539;SDS011;41384;51.418;7.286;2022-10-31T11:22:36;16.95;;;6.30;;
55539;SDS011;41384;51.418;7.286;2022-10-31T11:25:14;10.35;;;5.95;;
55539;SDS011;41384;51.418;7.286;2022-10-31T11:30:12;12.50;;;5.78;;
55539;SDS011;41384;51.418;7.286;2022-10-31T11:32:47;10.27;;;6.25;;
55539;SDS011;41384;51.418;7.286;2022-10-31T11:35:17;15.85;;;6.80;;
55539;SDS011;41384;51.418;7.286;2022-10-31T11:37:45;11.93;;;5.93;;
55539;SDS011;41384;51.418;7.286;2022-10-31T11:40:20;11.40;;;5.75;;
55539;SDS011;41384;51.418;7.286;2022-10-31T11:42:48;12.48;;;5.32;;
55539;SDS011;41384;51.418;7.286;2022-10-31T11:45:17;14.70;;;5.63;;
55539;SDS011;41384;51.418;7.286;2022-10-31T11:48:01;9.35;;;5.20;;
55539;SDS011;41384;51.418;7.286;2022-10-31T11:50:40;11.90;;;5.63;;
55539;SDS011;41384;51.418;7.286;2022-10-31T11:53:12;11.50;;;5.03;;
55539;SDS011;41384;51.418;7.286;2022-10-31T11:55:41;12.90;;;4.90;;
55539;SDS011;41384;51.418;7.286;2022-10-31T11:58:19;15.38;;;5.35;;
55539;SDS011;41384;51.418;7.286;2022-10-31T12:00:50;13.98;;;5.47;;
55539;SDS011;41384;51.418;7.286;2022-10-31T12:06:05;11.52;;;4.97;;
55539;SDS011;41384;51.418;7.286;2022-10-31T12:08:37;11.05;;;5.10;;
55539;SDS011;41384;51.418;7.286;2022-10-31T12:14:04;12.95;;;4.90;;
55539;SDS011;41384;51.418;7.286;2022-10-31T12:16:42;10.77;;;5.15;;
55539;SDS011;41384;51.418;7.286;2022-10-31T12:22:15;11.93;;;4.70;;
55539;SDS011;41384;51.418;7.286;2022-10-31T12:27:43;10.82;;;5.05;;
55539;SDS011;41384;51.418;7.286;2022-10-31T12:30:21;15.35;;;4.80;;
55539;SDS011;41384;51.418;7.286;2022-10-31T12:38:32;9.48;;;4.32;;
55539;SDS011;41384;51.418;7.286;2022-10-31T12:41:10;13.88;;;4.95;;
55539;SDS011;41384;51.418;7.286;2022-10-31T12:57:44;9.13;;;4.25;;
55539;SDS011;41384;51.418;7.286;2022-10-31T13:00:16;12.85;;;4.13;;
55539;SDS011;41384;51.418;7.286;2022-10-31T13:07:44;9.15;;;4.32;;
55539;SDS011;41384;51.418;7.286;2022-10-31T13:13:05;7.68;;;3.45;;
55539;SDS011;41384;51.418;7.286;2022-10-31T13:15:45;11.55;;;3.88;;
55539;SDS011;41384;51.418;7.286;2022-10-31T13:18:17;10.90;;;4.10;;
55539;SDS011;41384;51.418;7.286;2022-10-31T13:20:51;7.00;;;3.40;;
55539;SDS011;41384;51.418;7.286;2022-10-31T13:25:58;5.75;;;3.75;;
55539;SDS011;41384;51.418;7.286;2022-10-31T13:28:31;9.77;;;3.75;;
55539;SDS011;41384;51.418;7.286;2022-10-31T13:31:01;11.48;;;3.70;;
55539;SDS011;41384;51.418;7.286;2022-10-31T13:33:34;7.43;;;3.50;;
55539;SDS011;41384;51.418;7.286;2022-10-31T13:36:09;9.88;;;3.35;;
55539;SDS011;41384;51.418;7.286;2022-10-31T13:48:58;10.17;;;3.33;;
55539;SDS011;41384;51.418;7.286;2022-10-31T13:51:25;8.55;;;3.20;;
55539;SDS011;41384;51.418;7.286;2022-10-31T13:54:00;6.07;;;2.97;;
55539;SDS011;41384;51.418;7.286;2022-10-31T13:56:32;8.50;;;3.03;;
55539;SDS011;41384;51.418;7.286;2022-10-31T13:59:13;10.00;;;3.10;;
55539;SDS011;41384;51.418;7.286;2022-10-31T14:01:48;10.48;;;3.10;;
55539;SDS011;41384;51.418;7.286;2022-10-31T14:04:17;9.15;;;3.58;;
55539;SDS011;41384;51.418;7.286;2022-10-31T14:06:56;7.60;;;2.80;;
55539;SDS011;41384;51.418;7.286;2022-10-31T14:09:31;5.00;;;2.45;;
55539;SDS011;41384;51.418;7.286;2022-10-31T14:12:41;11.05;;;2.75;;
55539;SDS011;41384;51.418;7.286;2022-10-31T14:14:48;11.82;;;3.35;;
55539;SDS011;41384;51.418;7.286;2022-10-31T14:17:17;10.75;;;3.08;;
55539;SDS011;41384;51.418;7.286;2022-10-31T14:19:59;7.13;;;3.15;;
55539;SDS011;41384;51.418;7.286;2022-10-31T14:22:46;10.18;;;3.00;;
55539;SDS011;41384;51.418;7.286;2022-10-31T14:25:31;9.32;;;3.78;;
55539;SDS011;41384;51.418;7.286;2022-10-31T14:27:59;8.25;;;3.28;;
55539;SDS011;41384;51.418;7.286;2022-10-31T14:30:28;5.18;;;2.53;;
55539;SDS011;41384;51.418;7.286;2022-10-31T14:32:56;5.18;;;3.10;;
55539;SDS011;41384;51.418;7.286;2022-10-31T14:35:51;5.25;;;2.60;;
55539;SDS011;41384;51.418;7.286;2022-10-31T14:38:32;6.63;;;2.90;;
55539;SDS011;41384;51.418;7.286;2022-10-31T14:41:11;10.63;;;3.33;;
55539;SDS011;41384;51.418;7.286;2022-10-31T14:46:46;7.97;;;3.28;;
55539;SDS011;41384;51.418;7.286;2022-10-31T14:49:39;11.18;;;3.17;;
55539;SDS011;41384;51.418;7.286;2022-10-31T14:52:07;6.88;;;2.97;;
55539;SDS011;41384;51.418;7.286;2022-10-31T14:54:39;10.27;;;3.30;;
55539;SDS011;41384;51.418;7.286;2022-10-31T14:59:42;10.25;;;3.03;;
55539;SDS011;41384;51.418;7.286;2022-10-31T15:02:24;5.78;;;3.35;;
55539;SDS011;41384;51.418;7.286;2022-10-31T15:04:54;8.40;;;3.08;;
55539;SDS011;41384;51.418;7.286;2022-10-31T15:07:21;8.48;;;3.40;;
55539;SDS011;41384;51.418;7.286;2022-10-31T15:09:57;17.65;;;3.97;;
55539;SDS011;41384;51.418;7.286;2022-10-31T15:12:30;9.90;;;3.13;;
55539;SDS011;41384;51.418;7.286;2022-10-31T15:14:57;10.50;;;3.78;;
55539;SDS011;41384;51.418;7.286;2022-10-31T15:17:25;9.10;;;3.60;;
55539;SDS011;41384;51.418;7.286;2022-10-31T15:19:51;9.82;;;3.47;;
55539;SDS011;41384;51.418;7.286;2022-10-31T15:22:18;24.00;;;5.05;;
55539;SDS011;41384;51.418;7.286;2022-10-31T15:24:47;5.78;;;3.42;;
55539;SDS011;41384;51.418;7.286;2022-10-31T15:27:15;7.55;;;2.60;;
55539;SDS011;41384;51.418;7.286;2022-10-31T15:29:52;8.27;;;3.25;;
55539;SDS011;41384;51.418;7.286;2022-10-31T15:32:24;7.97;;;3.75;;
55539;SDS011;41384;51.418;7.286;2022-10-31T15:34:53;9.35;;;3.03;;
55539;SDS011;41384;51.418;7.286;2022-10-31T15:37:21;10.13;;;4.18;;
55539;SDS011;41384;51.418;7.286;2022-10-31T15:39:49;10.02;;;3.08;;
55539;SDS011;41384;51.418;7.286;2022-10-31T15:42:26;11.02;;;2.95;;
55539;SDS011;41384;51.418;7.286;2022-10-31T15:45:05;10.88;;;3.20;;
55539;SDS011;41384;51.418;7.286;2022-10-31T15:47:54;3.65;;;2.25;;
55539;SDS011;41384;51.418;7.286;2022-10-31T15:53:18;11.13;;;2.78;;
55539;SDS011;41384;51.418;7.286;2022-10-31T15:55:48;8.15;;;2.92;;
55539;SDS011;41384;51.418;7.286;2022-10-31T15:58:18;7.72;;;2.78;;
55539;SDS011;41384;51.418;7.286;2022-10-31T16:00:44;3.92;;;2.22;;
55539;SDS011;41384;51.418;7.286;2022-10-31T16:05:45;6.97;;;3.05;;
55539;SDS011;41384;51.418;7.286;2022-10-31T16:08:24;8.30;;;2.60;;
55539;SDS011;41384;51.418;7.286;2022-10-31T16:10:56;6.60;;;2.30;;
55539;SDS011;41384;51.418;7.286;2022-10-31T16:13:40;7.63;;;2.65;;
55539;SDS011;41384;51.418;7.286;2022-10-31T16:16:17;4.20;;;2.28;;
55539;SDS011;41384;51.418;7.286;2022-10-31T16:18:45;5.88;;;2.35;;
55539;SDS011;41384;51.418;7.286;2022-10-31T16:21:11;6.03;;;2.50;;
55539;SDS011;41384;51.418;7.286;2022-10-31T16:23:38;5.85;;;2.05;;
55539;SDS011;41384;51.418;7.286;2022-10-31T16:26:09;10.03;;;2.23;;
55539;SDS011;41384;51.418;7.286;2022-10-31T16:28:35;7.53;;;2.00;;
55539;SDS011;41384;51.418;7.286;2022-10-31T16:31:01;8.27;;;2.53;;
55539;SDS011;41384;51.418;7.286;2022-10-31T16:33:37;3.97;;;2.25;;
55539;SDS011;41384;51.418;7.286;2022-10-31T16:36:29;12.88;;;2.38;;
55539;SDS011;41384;51.418;7.286;2022-10-31T16:39:03;6.22;;;2.17;;
55539;SDS011;41384;51.418;7.286;2022-10-31T16:41:29;6.63;;;2.38;;
55539;SDS011;41384;51.418;7.286;2022-10-31T16:43:54;7.18;;;2.75;;
55539;SDS011;41384;51.418;7.286;2022-10-31T16:46:24;8.00;;;2.47;;